createdAt,value
2023-04-26T00:00:19.185Z,36.70
2023-04-26T00:01:19.223Z,36.71
2023-04-26T00:02:19.396Z,36.69
2023-04-26T00:03:19.424Z,36.69
2023-04-26T00:04:19.516Z,36.70
2023-04-26T00:05:19.573Z,36.70
2023-04-26T00:06:19.360Z,36.70
2023-04-26T00:07:19.415Z,36.72
2023-04-26T00:08:19.438Z,36.67
2023-04-26T00:09:19.483Z,36.67
2023-04-26T00:10:19.494Z,36.67
2023-04-26T00:11:19.522Z,36.69
2023-04-26T00:12:19.567Z,36.69
2023-04-26T00:13:19.582Z,36.68
2023-04-26T00:14:19.612Z,36.68
2023-04-26T00:15:19.656Z,36.68
2023-04-26T00:16:19.711Z,36.69
2023-04-26T00:17:19.718Z,36.71
2023-04-26T00:18:19.767Z,36.68
2023-04-26T00:19:19.773Z,36.68
2023-04-26T00:20:19.806Z,36.67
2023-04-26T00:21:19.819Z,36.65
2023-04-26T00:22:19.846Z,36.69
2023-04-26T00:23:19.882Z,36.66
2023-04-26T00:24:19.916Z,36.65
2023-04-26T00:25:19.948Z,36.66
2023-04-26T00:26:19.954Z,36.66
2023-04-26T00:27:19.982Z,36.66
2023-04-26T00:28:20.003Z,36.68
2023-04-26T00:29:20.034Z,36.65
2023-04-26T00:30:20.075Z,36.71
2023-04-26T00:31:20.133Z,36.68
2023-04-26T00:32:20.182Z,36.70
2023-04-26T00:33:20.131Z,36.72
2023-04-26T00:34:20.196Z,36.70
2023-04-26T00:35:20.173Z,36.69
2023-04-26T00:36:20.204Z,36.72
2023-04-26T00:37:20.974Z,36.71
2023-04-26T00:38:20.243Z,36.65
2023-04-26T00:39:20.279Z,36.71
2023-04-26T00:40:20.310Z,36.71
2023-04-26T00:41:20.353Z,36.72
2023-04-26T00:42:20.373Z,36.72
2023-04-26T00:43:20.974Z,36.71
2023-04-26T00:44:20.443Z,36.73
2023-04-26T00:45:20.451Z,36.72
2023-04-26T00:46:20.587Z,36.73
2023-04-26T00:47:20.482Z,36.72
2023-04-26T00:48:20.502Z,36.72
2023-04-26T00:49:20.528Z,36.73
2023-04-26T00:50:20.552Z,36.70
2023-04-26T00:51:20.575Z,36.74
2023-04-26T00:52:20.599Z,36.73
2023-04-26T00:53:20.626Z,36.70
2023-04-26T00:54:20.659Z,36.73
2023-04-26T00:55:20.729Z,36.72
2023-04-26T00:56:20.704Z,36.70
2023-04-26T00:57:20.718Z,36.68
2023-04-26T00:58:20.732Z,36.71
2023-04-26T00:59:20.817Z,36.69
2023-04-26T01:00:20.797Z,36.71
2023-04-26T01:01:20.860Z,36.73
2023-04-26T01:02:20.946Z,36.71
2023-04-26T01:03:20.937Z,36.72
2023-04-26T01:04:21.000Z,36.73
2023-04-26T01:05:20.916Z,36.69
2023-04-26T01:06:20.936Z,36.69
2023-04-26T01:07:20.961Z,36.73
2023-04-26T01:08:21.150Z,36.71
2023-04-26T01:09:21.019Z,36.70
2023-04-26T01:10:21.038Z,36.71
2023-04-26T01:11:21.065Z,36.71
2023-04-26T01:12:21.088Z,36.70
2023-04-26T01:13:21.115Z,36.69
2023-04-26T01:14:21.151Z,36.69
2023-04-26T01:15:21.173Z,36.72
2023-04-26T01:16:21.211Z,36.70
2023-04-26T01:17:21.265Z,36.69
2023-04-26T01:18:21.247Z,36.66
2023-04-26T01:19:21.274Z,36.70
2023-04-26T01:20:21.292Z,36.72
2023-04-26T01:21:21.317Z,36.69
2023-04-26T01:22:21.345Z,36.70
2023-04-26T01:23:21.356Z,36.70
2023-04-26T01:24:21.387Z,36.70
2023-04-26T01:25:21.402Z,36.71
2023-04-26T01:26:21.412Z,36.72
2023-04-26T01:27:21.457Z,36.68
2023-04-26T01:28:21.483Z,36.68
2023-04-26T01:29:21.530Z,36.69
2023-04-26T01:30:21.531Z,36.68
2023-04-26T01:31:21.608Z,36.71
2023-04-26T01:32:21.585Z,36.72
2023-04-26T01:33:21.629Z,36.70
2023-04-26T01:34:21.656Z,36.72
2023-04-26T01:35:21.675Z,36.72
2023-04-26T01:36:21.684Z,36.70
2023-04-26T01:37:21.706Z,36.72
2023-04-26T01:38:21.730Z,36.71
2023-04-26T01:39:21.741Z,36.72
2023-04-26T01:40:21.786Z,36.71
2023-04-26T01:41:21.792Z,36.71
2023-04-26T01:42:21.826Z,36.71
2023-04-26T01:43:21.860Z,36.72
2023-04-26T01:44:21.880Z,36.71
2023-04-26T01:45:21.907Z,36.70
2023-04-26T01:46:21.986Z,36.74
2023-04-26T01:47:21.997Z,36.72
2023-04-26T01:48:22.046Z,36.73
2023-04-26T01:49:22.029Z,36.71
2023-04-26T01:50:22.061Z,36.74
2023-04-26T01:51:22.084Z,36.75
2023-04-26T01:52:22.126Z,36.75
2023-04-26T01:53:22.135Z,36.73
2023-04-26T01:54:22.174Z,36.73
2023-04-26T01:55:22.192Z,36.73
2023-04-26T01:56:22.214Z,36.72
2023-04-26T01:57:22.242Z,36.74
2023-04-26T01:58:22.263Z,36.75
2023-04-26T01:59:22.306Z,36.73
2023-04-26T02:00:22.323Z,36.74
2023-04-26T02:01:22.428Z,36.76
2023-04-26T02:02:22.433Z,36.76
2023-04-26T02:03:22.489Z,36.72
2023-04-26T02:04:22.452Z,36.73
2023-04-26T02:05:22.691Z,36.74
2023-04-26T02:06:22.506Z,36.72
2023-04-26T02:07:22.535Z,36.73
2023-04-26T02:08:22.574Z,36.73
2023-04-26T02:09:22.584Z,36.78
2023-04-26T02:10:22.623Z,36.74
2023-04-26T02:11:22.649Z,36.76
2023-04-26T02:12:22.699Z,36.77
2023-04-26T02:13:22.718Z,36.75
2023-04-26T02:14:22.742Z,36.73
2023-04-26T02:15:22.768Z,36.78
2023-04-26T02:16:22.826Z,36.77
2023-04-26T02:17:22.815Z,36.73
2023-04-26T02:18:22.850Z,36.76
2023-04-26T02:19:22.876Z,36.76
2023-04-26T02:20:22.919Z,36.74
2023-04-26T02:21:22.948Z,36.73
2023-04-26T02:22:22.965Z,36.76
2023-04-26T02:23:22.985Z,36.77
2023-04-26T02:24:23.037Z,36.78
2023-04-26T02:25:23.173Z,36.73
2023-04-26T02:26:23.087Z,36.76
2023-04-26T02:27:23.106Z,36.75
2023-04-26T02:28:23.141Z,36.78
2023-04-26T02:29:36.233Z,36.78
2023-04-26T02:30:24.138Z,36.79
2023-04-26T02:31:23.369Z,36.78
2023-04-26T02:32:23.098Z,36.77
2023-04-26T02:33:23.020Z,36.76
2023-04-26T02:34:22.997Z,36.77
2023-04-26T02:35:22.949Z,36.79
2023-04-26T02:36:22.906Z,36.77
2023-04-26T02:37:22.863Z,36.76
2023-04-26T02:38:22.821Z,36.81
2023-04-26T02:39:22.816Z,36.81
2023-04-26T02:40:22.854Z,36.81
2023-04-26T02:41:22.865Z,36.81
2023-04-26T02:42:22.893Z,36.80
2023-04-26T02:43:22.920Z,36.79
2023-04-26T02:44:22.948Z,36.79
2023-04-26T02:45:22.963Z,36.83
2023-04-26T02:46:23.011Z,36.77
2023-04-26T02:47:23.056Z,36.78
2023-04-26T02:48:23.044Z,36.80
2023-04-26T02:49:23.086Z,36.77
2023-04-26T02:50:23.105Z,36.81
2023-04-26T02:51:23.143Z,36.81
2023-04-26T02:52:23.167Z,36.80
2023-04-26T02:53:23.198Z,36.77
2023-04-26T02:54:23.222Z,36.79
2023-04-26T02:55:23.299Z,36.81
2023-04-26T02:56:23.276Z,36.81
2023-04-26T02:57:23.300Z,36.83
2023-04-26T02:58:23.362Z,36.82
2023-04-26T02:59:23.364Z,36.80
2023-04-26T03:00:23.383Z,36.83
2023-04-26T03:01:23.434Z,36.80
2023-04-26T03:02:23.517Z,36.79
2023-04-26T03:03:23.745Z,36.78
2023-04-26T03:04:23.518Z,36.77
2023-04-26T03:05:23.477Z,36.83
2023-04-26T03:06:23.501Z,36.80
2023-04-26T03:07:23.538Z,36.80
2023-04-26T03:08:23.569Z,36.81
2023-04-26T03:09:23.594Z,36.84
2023-04-26T03:10:23.627Z,36.79
2023-04-26T03:11:23.655Z,36.80
2023-04-26T03:12:23.685Z,36.81
2023-04-26T03:13:23.712Z,36.79
2023-04-26T03:14:23.738Z,36.79
2023-04-26T03:15:23.773Z,36.80
2023-04-26T03:16:23.917Z,36.81
2023-04-26T03:17:23.862Z,36.81
2023-04-26T03:18:23.869Z,36.79
2023-04-26T03:19:23.876Z,36.77
2023-04-26T03:20:23.905Z,36.79
2023-04-26T03:21:23.932Z,36.81
2023-04-26T03:22:23.957Z,36.78
2023-04-26T03:23:23.993Z,36.77
2023-04-26T03:24:24.036Z,36.76
2023-04-26T03:25:24.056Z,36.75
2023-04-26T03:26:24.096Z,36.74
2023-04-26T03:27:24.142Z,36.76
2023-04-26T03:28:24.168Z,36.78
2023-04-26T03:29:24.238Z,36.74
2023-04-26T03:30:24.229Z,36.76
2023-04-26T03:31:24.321Z,36.77
2023-04-26T03:32:24.297Z,36.74
2023-04-26T03:33:24.342Z,36.78
2023-04-26T03:34:24.382Z,36.76
2023-04-26T03:35:24.572Z,36.79
2023-04-26T03:36:24.449Z,36.78
2023-04-26T03:37:24.471Z,36.74
2023-04-26T03:38:24.493Z,36.76
2023-04-26T03:39:24.539Z,36.74
2023-04-26T03:40:24.578Z,36.76
2023-04-26T03:41:24.597Z,36.72
2023-04-26T03:42:24.636Z,36.73
2023-04-26T03:43:24.649Z,36.74
2023-04-26T03:44:24.668Z,36.75
2023-04-26T03:45:24.721Z,36.74
2023-04-26T03:46:24.794Z,36.74
2023-04-26T03:47:24.842Z,36.72
2023-04-26T03:48:24.814Z,36.74
2023-04-26T03:49:24.848Z,36.71
2023-04-26T03:50:24.885Z,36.76
2023-04-26T03:51:24.894Z,36.76
2023-04-26T03:52:24.916Z,36.74
2023-04-26T03:53:24.948Z,36.74
2023-04-26T03:54:25.017Z,36.74
2023-04-26T03:55:25.007Z,36.73
2023-04-26T03:56:25.034Z,36.78
2023-04-26T03:57:25.060Z,36.75
2023-04-26T03:58:25.104Z,36.77
2023-04-26T03:59:25.105Z,36.75
2023-04-26T04:00:25.128Z,36.78
2023-04-26T04:01:25.148Z,36.74
2023-04-26T04:02:25.249Z,36.76
2023-04-26T04:03:25.471Z,36.77
2023-04-26T04:04:25.432Z,36.75
2023-04-26T04:05:25.312Z,36.74
2023-04-26T04:06:25.276Z,36.76
2023-04-26T04:07:25.307Z,36.75
2023-04-26T04:08:25.333Z,36.74
2023-04-26T04:09:25.367Z,36.79
2023-04-26T04:10:25.376Z,36.77
2023-04-26T04:11:25.400Z,36.73
2023-04-26T04:12:25.425Z,36.79
2023-04-26T04:13:25.438Z,36.78
2023-04-26T04:14:25.469Z,36.77
2023-04-26T04:15:25.520Z,36.76
2023-04-26T04:16:25.569Z,36.78
2023-04-26T04:17:25.553Z,36.80
2023-04-26T04:18:25.590Z,36.78
2023-04-26T04:19:25.616Z,36.76
2023-04-26T04:20:25.640Z,36.73
2023-04-26T04:21:25.635Z,36.74
2023-04-26T04:22:25.662Z,36.76
2023-04-26T04:23:25.687Z,36.70
2023-04-26T04:24:25.762Z,36.77
2023-04-26T04:25:25.749Z,36.75
2023-04-26T04:26:25.805Z,36.74
2023-04-26T04:27:25.794Z,36.75
2023-04-26T04:28:25.833Z,36.74
2023-04-26T04:29:25.871Z,36.72
2023-04-26T04:30:25.915Z,36.77
2023-04-26T04:31:25.979Z,36.75
2023-04-26T04:32:26.000Z,36.77
2023-04-26T04:33:26.001Z,36.76
2023-04-26T04:34:26.056Z,36.76
2023-04-26T04:35:26.075Z,36.78
2023-04-26T04:36:26.103Z,36.76
2023-04-26T04:37:26.127Z,36.78
2023-04-26T04:38:26.167Z,36.77
2023-04-26T04:39:26.193Z,36.76
2023-04-26T04:40:26.229Z,36.79
2023-04-26T04:41:26.255Z,36.75
2023-04-26T04:42:26.296Z,36.77
2023-04-26T04:43:26.317Z,36.77
2023-04-26T04:44:26.360Z,36.74
2023-04-26T04:45:26.384Z,36.78
2023-04-26T04:46:26.469Z,36.75
2023-04-26T04:47:26.565Z,36.74
2023-04-26T04:48:26.479Z,36.76
2023-04-26T04:49:26.502Z,36.77
2023-04-26T04:50:26.544Z,36.73
2023-04-26T04:51:26.579Z,36.73
2023-04-26T04:52:26.596Z,36.73
2023-04-26T04:53:26.621Z,36.71
2023-04-26T04:54:26.653Z,36.72
2023-04-26T04:55:26.675Z,36.73
2023-04-26T04:56:26.719Z,36.72
2023-04-26T04:57:26.745Z,36.72
2023-04-26T04:58:26.767Z,36.69
2023-04-26T05:00:26.820Z,36.73
2023-04-26T05:01:26.905Z,36.74
2023-04-26T05:02:26.986Z,36.75
2023-04-26T05:03:26.998Z,37.09
2023-04-26T05:04:27.177Z,37.05
2023-04-26T05:05:26.988Z,37.07
2023-04-26T05:06:27.009Z,37.68
2023-04-26T05:07:28.958Z,37.56
2023-04-26T05:08:27.066Z,37.49
2023-04-26T05:09:27.098Z,38.61
2023-04-26T05:10:27.121Z,39.33
2023-04-26T05:11:27.128Z,39.76
2023-04-26T05:12:27.202Z,39.81
2023-04-26T05:13:27.155Z,38.48
2023-04-26T05:14:27.187Z,38.61
2023-04-26T05:15:27.243Z,37.83
2023-04-26T05:16:27.268Z,37.90
2023-04-26T05:17:27.251Z,38.83
2023-04-26T05:18:28.170Z,39.34
2023-04-26T05:19:27.159Z,39.10
2023-04-26T05:20:27.129Z,39.49
2023-04-26T05:21:27.121Z,39.29
2023-04-26T05:22:27.618Z,39.10
2023-04-26T05:23:27.086Z,38.98
2023-04-26T05:24:27.093Z,38.67
2023-04-26T05:25:27.079Z,38.26
2023-04-26T05:26:27.067Z,37.42
2023-04-26T05:27:27.033Z,36.20
2023-04-26T05:28:27.044Z,37.51
2023-04-26T05:29:27.635Z,38.64
2023-04-26T05:30:26.989Z,38.66
2023-04-26T05:31:27.221Z,37.85
2023-04-26T05:32:26.953Z,35.76
2023-04-26T05:33:26.939Z,36.05
2023-04-26T05:34:26.946Z,36.15
2023-04-26T05:35:26.911Z,36.72
2023-04-26T05:36:29.160Z,38.43
2023-04-26T05:37:29.831Z,38.87
2023-04-26T05:38:26.809Z,38.63
2023-04-26T05:39:26.778Z,38.35
2023-04-26T05:40:26.788Z,37.81
2023-04-26T05:41:26.733Z,37.60
2023-04-26T05:42:26.706Z,37.60
2023-04-26T05:43:28.255Z,37.72
2023-04-26T05:44:26.643Z,38.60
2023-04-26T05:45:26.650Z,38.88
2023-04-26T05:46:27.234Z,38.49
2023-04-26T05:47:26.700Z,38.58
2023-04-26T05:48:26.655Z,38.98
2023-04-26T05:49:26.573Z,39.14
2023-04-26T05:50:28.169Z,38.53
2023-04-26T05:51:26.522Z,37.93
2023-04-26T05:52:26.475Z,37.83
2023-04-26T05:53:26.601Z,37.73
2023-04-26T05:54:26.412Z,37.58
2023-04-26T05:55:26.388Z,37.52
2023-04-26T05:56:26.347Z,37.85
2023-04-26T05:57:26.384Z,37.93
2023-04-26T05:58:26.279Z,38.32
2023-04-26T05:59:26.338Z,38.39
2023-04-26T06:00:26.350Z,38.03
2023-04-26T06:01:26.381Z,38.49
2023-04-26T06:02:26.494Z,38.80
2023-04-26T06:03:26.572Z,38.72
2023-04-26T06:04:26.725Z,38.54
2023-04-26T06:05:26.562Z,38.56
2023-04-26T06:06:26.688Z,38.79
2023-04-26T06:07:26.525Z,38.88
2023-04-26T06:08:26.553Z,38.94
2023-04-26T06:09:26.616Z,38.89
2023-04-26T06:10:26.653Z,38.55
2023-04-26T06:11:26.653Z,38.65
2023-04-26T06:12:26.689Z,38.57
2023-04-26T06:13:26.725Z,38.77
2023-04-26T06:14:30.517Z,38.71
2023-04-26T06:15:26.725Z,38.67
2023-04-26T06:16:26.734Z,38.74
2023-04-26T06:17:26.681Z,38.85
2023-04-26T06:18:26.630Z,38.80
2023-04-26T06:19:26.591Z,38.90
2023-04-26T06:20:26.588Z,38.84
2023-04-26T06:21:26.549Z,38.60
2023-04-26T06:22:26.513Z,37.67
2023-04-26T06:23:26.507Z,37.66
2023-04-26T06:24:26.453Z,37.90
2023-04-26T06:25:26.435Z,37.95
2023-04-26T06:26:26.394Z,38.47
2023-04-26T06:27:26.375Z,38.52
2023-04-26T06:28:26.347Z,38.43
2023-04-26T06:29:26.316Z,38.50
2023-04-26T06:30:26.298Z,38.45
2023-04-26T06:31:26.292Z,38.45
2023-04-26T06:32:26.254Z,38.44
2023-04-26T06:33:26.188Z,38.49
2023-04-26T06:34:26.180Z,38.44
2023-04-26T06:35:26.126Z,38.43
2023-04-26T06:36:26.110Z,38.52
2023-04-26T06:37:26.075Z,38.46
2023-04-26T06:38:26.021Z,38.52
2023-04-26T06:39:25.996Z,38.56
2023-04-26T06:40:25.969Z,38.58
2023-04-26T06:41:25.986Z,38.60
2023-04-26T06:42:26.578Z,38.54
2023-04-26T06:43:26.038Z,38.21
2023-04-26T06:44:26.056Z,37.78
2023-04-26T06:45:26.116Z,37.95
2023-04-26T06:46:26.172Z,38.89
2023-04-26T06:47:26.202Z,39.03
2023-04-26T06:48:26.201Z,38.45
2023-04-26T06:49:26.243Z,38.62
2023-04-26T06:50:26.330Z,38.87
2023-04-26T06:51:26.307Z,38.53
2023-04-26T06:52:26.359Z,37.78
2023-04-26T06:53:26.379Z,38.02
2023-04-26T06:54:26.406Z,38.69
2023-04-26T06:55:26.461Z,38.75
2023-04-26T06:56:26.507Z,37.92
2023-04-26T06:57:26.537Z,37.98
2023-04-26T06:58:26.572Z,37.30
2023-04-26T06:59:26.610Z,38.32
2023-04-26T07:00:26.683Z,38.40
2023-04-26T07:01:26.733Z,38.61
2023-04-26T07:02:26.881Z,38.54
2023-04-26T07:03:26.924Z,38.18
2023-04-26T07:04:26.982Z,38.28
2023-04-26T07:05:26.838Z,38.32
2023-04-26T07:06:26.873Z,38.52
2023-04-26T07:07:26.930Z,38.34
2023-04-26T07:08:26.965Z,38.18
2023-04-26T07:09:26.984Z,37.10
2023-04-26T07:10:27.298Z,37.63
2023-04-26T07:11:27.118Z,38.13
2023-04-26T07:12:27.032Z,38.11
2023-04-26T07:13:28.194Z,38.19
2023-04-26T07:14:26.982Z,37.02
2023-04-26T07:15:26.950Z,37.32
2023-04-26T07:16:27.181Z,37.78
2023-04-26T07:17:26.898Z,38.17
2023-04-26T07:18:27.692Z,38.32
2023-04-26T07:19:26.840Z,38.77
2023-04-26T07:20:27.184Z,39.40
2023-04-26T07:21:26.830Z,39.77
2023-04-26T07:22:27.603Z,39.90
2023-04-26T07:23:26.718Z,39.60
2023-04-26T07:24:26.717Z,39.93
2023-04-26T07:25:26.658Z,39.26
2023-04-26T07:26:27.150Z,38.90
2023-04-26T07:27:26.639Z,38.78
2023-04-26T07:28:26.667Z,38.77
2023-04-26T07:29:26.689Z,38.77
2023-04-26T07:30:26.732Z,38.78
2023-04-26T07:31:26.725Z,38.84
2023-04-26T07:32:26.919Z,38.80
2023-04-26T07:33:26.847Z,38.94
2023-04-26T07:34:26.795Z,38.90
2023-04-26T07:35:27.611Z,38.70
2023-04-26T07:36:26.845Z,38.89
2023-04-26T07:37:28.701Z,38.66
2023-04-26T07:38:28.716Z,38.76
2023-04-26T07:39:27.685Z,38.82
2023-04-26T07:40:27.859Z,38.96
2023-04-26T07:41:26.861Z,38.41
2023-04-26T07:42:27.655Z,37.94
2023-04-26T07:43:26.768Z,38.64
2023-04-26T07:44:26.742Z,37.73
2023-04-26T07:45:26.774Z,37.71
2023-04-26T07:46:26.753Z,37.25
2023-04-26T07:47:26.688Z,36.99
2023-04-26T07:48:26.627Z,37.49
2023-04-26T07:49:26.651Z,38.02
2023-04-26T07:50:26.574Z,36.95
2023-04-26T07:51:26.527Z,37.86
2023-04-26T07:52:26.500Z,37.41
2023-04-26T07:53:26.484Z,37.86
2023-04-26T07:54:27.210Z,37.65
2023-04-26T07:55:26.426Z,37.84
2023-04-26T07:56:31.397Z,37.99
2023-04-26T07:57:26.316Z,38.21
2023-04-26T07:58:26.295Z,36.95
2023-04-26T07:59:26.266Z,37.69
2023-04-26T08:00:26.237Z,37.43
2023-04-26T08:01:26.219Z,37.21
2023-04-26T08:02:41.061Z,37.22
2023-04-26T08:03:27.372Z,36.42
2023-04-26T08:04:26.175Z,36.37
2023-04-26T08:05:26.856Z,36.96
2023-04-26T08:06:26.115Z,37.42
2023-04-26T08:07:26.016Z,36.74
2023-04-26T08:08:25.984Z,36.24
2023-04-26T08:09:25.961Z,36.40
2023-04-26T08:10:25.944Z,36.47
2023-04-26T08:11:25.925Z,36.52
2023-04-26T08:12:26.876Z,37.43
2023-04-26T08:13:29.304Z,38.92
2023-04-26T08:14:25.840Z,39.72
2023-04-26T08:15:25.809Z,39.32
2023-04-26T08:16:25.896Z,38.69
2023-04-26T08:17:25.847Z,38.26
2023-04-26T08:18:25.726Z,37.91
2023-04-26T08:19:26.728Z,36.73
2023-04-26T08:20:25.692Z,35.78
2023-04-26T08:21:25.668Z,35.43
2023-04-26T08:22:26.213Z,35.15
2023-04-26T08:23:25.610Z,35.11
2023-04-26T08:24:25.589Z,33.70
2023-04-26T08:25:25.568Z,33.02
2023-04-26T08:26:25.529Z,31.27
2023-04-26T08:27:25.505Z,30.99
2023-04-26T08:28:25.472Z,31.19
2023-04-26T08:29:25.451Z,31.01
2023-04-26T08:30:25.423Z,30.60
2023-04-26T08:31:25.470Z,29.75
2023-04-26T08:32:25.371Z,29.74
2023-04-26T08:33:25.322Z,29.75
2023-04-26T08:34:25.273Z,30.15
2023-04-26T08:35:25.232Z,30.35
2023-04-26T08:36:25.196Z,30.76
2023-04-26T08:37:25.342Z,31.20
2023-04-26T08:38:25.225Z,31.51
2023-04-26T08:39:25.246Z,31.86
2023-04-26T08:40:25.288Z,32.03
2023-04-26T08:41:25.282Z,32.16
2023-04-26T08:42:26.221Z,32.99
2023-04-26T08:43:25.267Z,33.41
2023-04-26T08:44:25.357Z,33.54
2023-04-26T08:45:25.238Z,33.77
2023-04-26T08:46:25.212Z,33.88
2023-04-26T08:47:25.529Z,33.97
2023-04-26T08:48:25.160Z,34.03
2023-04-26T08:49:25.081Z,34.29
2023-04-26T08:50:25.027Z,34.41
2023-04-26T08:51:24.992Z,34.51
2023-04-26T08:52:25.740Z,34.56
2023-04-26T08:53:24.918Z,34.50
2023-04-26T08:54:25.728Z,34.48
2023-04-26T08:55:24.853Z,34.59
2023-04-26T08:56:24.810Z,34.59
2023-04-26T08:57:24.790Z,34.84
2023-04-26T08:58:24.745Z,34.98
2023-04-26T08:59:24.715Z,34.87
2023-04-26T09:00:25.231Z,34.80
2023-04-26T09:01:24.678Z,34.81
2023-04-26T09:02:24.856Z,34.79
2023-04-26T09:03:24.784Z,34.80
2023-04-26T09:04:25.492Z,34.76
2023-04-26T09:05:25.053Z,34.75
2023-04-26T09:06:24.768Z,34.74
2023-04-26T09:07:25.741Z,34.72
2023-04-26T09:08:24.935Z,34.67
2023-04-26T09:09:24.840Z,34.66
2023-04-26T09:10:24.874Z,34.75
2023-04-26T09:11:24.905Z,34.72
2023-04-26T09:12:24.924Z,34.71
2023-04-26T09:13:24.960Z,34.89
2023-04-26T09:14:24.997Z,35.65
2023-04-26T09:15:24.993Z,35.91
2023-04-26T09:16:25.062Z,35.86
2023-04-26T09:17:25.055Z,37.47
2023-04-26T09:18:25.035Z,37.72
2023-04-26T09:19:25.069Z,37.08
2023-04-26T09:20:25.065Z,37.70
2023-04-26T09:21:25.131Z,36.87
2023-04-26T09:22:25.187Z,35.75
2023-04-26T09:23:25.184Z,35.77
2023-04-26T09:24:26.750Z,35.10
2023-04-26T09:25:25.746Z,34.96
2023-04-26T09:26:25.172Z,34.74
2023-04-26T09:27:25.158Z,34.70
2023-04-26T09:28:26.178Z,35.83
2023-04-26T09:29:25.144Z,35.96
2023-04-26T09:30:25.128Z,36.88
2023-04-26T09:31:25.144Z,36.76
2023-04-26T09:32:25.091Z,36.75
2023-04-26T09:33:25.126Z,36.85
2023-04-26T09:34:25.077Z,35.37
2023-04-26T09:35:25.070Z,36.09
2023-04-26T09:36:25.068Z,35.80
2023-04-26T09:37:25.045Z,35.62
2023-04-26T09:38:25.736Z,36.64
2023-04-26T09:39:25.028Z,35.28
2023-04-26T09:40:25.015Z,35.65
2023-04-26T09:41:25.018Z,36.15
2023-04-26T09:42:25.002Z,34.94
2023-04-26T09:43:25.011Z,33.79
2023-04-26T09:44:25.757Z,33.64
2023-04-26T09:45:25.026Z,34.75
2023-04-26T09:46:25.232Z,35.66
2023-04-26T09:47:25.055Z,35.61
2023-04-26T09:48:25.026Z,36.20
2023-04-26T09:49:25.108Z,35.86
2023-04-26T09:50:25.744Z,36.12
2023-04-26T09:51:25.006Z,36.01
2023-04-26T09:52:25.004Z,35.82
2023-04-26T09:53:25.070Z,35.95
2023-04-26T09:54:24.979Z,35.99
2023-04-26T09:55:34.038Z,35.74
2023-04-26T09:56:25.984Z,34.62
2023-04-26T09:57:26.673Z,34.88
2023-04-26T09:58:24.953Z,35.13
2023-04-26T09:59:24.920Z,35.20
2023-04-26T10:00:25.757Z,34.64
2023-04-26T10:01:25.877Z,35.46
2023-04-26T10:02:25.012Z,35.69
2023-04-26T10:03:25.777Z,34.45
2023-04-26T10:04:24.888Z,35.44
2023-04-26T10:05:24.845Z,35.40
2023-04-26T10:06:24.842Z,35.14
2023-04-26T10:07:24.840Z,35.47
2023-04-26T10:08:24.802Z,35.57
2023-04-26T10:09:29.953Z,34.53
2023-04-26T10:10:24.829Z,34.51
2023-04-26T10:11:24.799Z,34.55
2023-04-26T10:12:24.782Z,34.61
2023-04-26T10:13:24.769Z,34.58
2023-04-26T10:14:24.728Z,34.42
2023-04-26T10:15:24.736Z,34.79
2023-04-26T10:16:24.752Z,34.26
2023-04-26T10:17:24.725Z,35.41
2023-04-26T10:18:24.711Z,35.18
2023-04-26T10:19:24.685Z,35.86
2023-04-26T10:20:24.665Z,34.60
2023-04-26T10:21:24.683Z,35.29
2023-04-26T10:22:24.625Z,34.78
2023-04-26T10:23:24.609Z,35.14
2023-04-26T10:24:24.694Z,34.96
2023-04-26T10:25:24.618Z,36.27
2023-04-26T10:26:24.569Z,36.24
2023-04-26T10:27:24.578Z,35.88
2023-04-26T10:28:24.553Z,35.79
2023-04-26T10:29:24.579Z,36.03
2023-04-26T10:30:24.534Z,35.73
2023-04-26T10:31:24.554Z,36.03
2023-04-26T10:32:24.510Z,36.07
2023-04-26T10:33:24.563Z,35.70
2023-04-26T10:34:24.514Z,35.66
2023-04-26T10:35:24.525Z,35.27
2023-04-26T10:36:24.551Z,35.83
2023-04-26T10:37:24.555Z,35.36
2023-04-26T10:38:24.601Z,35.87
2023-04-26T10:39:24.584Z,35.41
2023-04-26T10:40:24.719Z,35.02
2023-04-26T10:41:24.769Z,34.77
2023-04-26T10:42:25.459Z,34.59
2023-04-26T10:43:26.091Z,34.53
2023-04-26T10:44:24.692Z,34.74
2023-04-26T10:45:24.826Z,35.22
2023-04-26T10:46:24.759Z,34.96
2023-04-26T10:47:24.813Z,34.53
2023-04-26T10:48:24.820Z,34.32
2023-04-26T10:49:26.651Z,34.13
2023-04-26T10:50:24.892Z,33.16
2023-04-26T10:51:24.939Z,33.61
2023-04-26T10:52:24.936Z,33.43
2023-04-26T10:53:24.974Z,33.42
2023-04-26T10:54:25.000Z,33.48
2023-04-26T10:55:25.549Z,33.58
2023-04-26T10:56:25.101Z,33.50
2023-04-26T10:57:25.072Z,33.76
2023-04-26T10:58:25.095Z,33.20
2023-04-26T10:59:39.681Z,33.89
2023-04-26T11:00:27.047Z,32.98
2023-04-26T11:01:25.117Z,33.28
2023-04-26T11:02:25.138Z,33.72
2023-04-26T11:03:25.194Z,33.05
2023-04-26T11:04:25.127Z,32.48
2023-04-26T11:05:25.484Z,32.78
2023-04-26T11:06:25.015Z,32.81
2023-04-26T11:07:24.994Z,32.74
2023-04-26T11:08:24.966Z,32.72
2023-04-26T11:09:24.945Z,33.07
2023-04-26T11:10:25.794Z,32.60
2023-04-26T11:11:24.891Z,32.75
2023-04-26T11:12:24.857Z,33.37
2023-04-26T11:13:24.825Z,33.60
2023-04-26T11:14:24.793Z,33.60
2023-04-26T11:15:24.763Z,33.52
2023-04-26T11:16:24.795Z,33.28
2023-04-26T11:17:24.696Z,33.15
2023-04-26T11:18:24.650Z,32.94
2023-04-26T11:19:24.627Z,33.02
2023-04-26T11:20:24.582Z,33.32
2023-04-26T11:21:24.559Z,33.47
2023-04-26T11:22:24.557Z,33.68
2023-04-26T11:23:24.482Z,33.78
2023-04-26T11:24:24.436Z,33.70
2023-04-26T11:25:24.410Z,33.68
2023-04-26T11:26:24.364Z,33.55
2023-04-26T11:27:24.324Z,33.71
2023-04-26T11:28:24.295Z,33.57
2023-04-26T11:29:24.267Z,33.72
2023-04-26T11:30:24.254Z,33.62
2023-04-26T11:31:24.257Z,33.21
2023-04-26T11:32:24.127Z,33.43
2023-04-26T11:33:24.115Z,33.50
2023-04-26T11:34:24.044Z,33.43
2023-04-26T11:35:24.015Z,33.45
2023-04-26T11:36:23.975Z,33.04
2023-04-26T11:37:23.963Z,33.21
2023-04-26T11:38:23.971Z,33.40
2023-04-26T11:39:24.001Z,33.37
2023-04-26T11:40:24.018Z,33.37
2023-04-26T11:41:24.043Z,33.27
2023-04-26T11:42:24.048Z,33.27
2023-04-26T11:43:24.084Z,33.31
2023-04-26T11:44:24.120Z,33.27
2023-04-26T11:45:24.309Z,33.20
2023-04-26T11:46:24.249Z,33.14
2023-04-26T11:47:24.191Z,33.21
2023-04-26T11:48:24.213Z,33.17
2023-04-26T11:49:24.215Z,33.28
2023-04-26T11:50:24.255Z,33.28
2023-04-26T11:51:24.298Z,33.28
2023-04-26T11:52:24.301Z,33.30
2023-04-26T11:53:24.349Z,33.27
2023-04-26T11:54:24.366Z,33.29
2023-04-26T11:55:24.404Z,33.25
2023-04-26T11:56:24.433Z,33.19
2023-04-26T11:57:24.446Z,33.16
2023-04-26T11:58:24.479Z,33.12
2023-04-26T11:59:24.495Z,33.08
2023-04-26T12:00:24.504Z,33.08
2023-04-26T12:01:24.571Z,33.08
2023-04-26T12:02:24.677Z,33.08
2023-04-26T12:03:24.755Z,33.08
2023-04-26T12:04:25.959Z,33.07
2023-04-26T12:05:24.676Z,33.11
2023-04-26T12:06:24.542Z,33.12
2023-04-26T12:07:24.499Z,33.14
2023-04-26T12:08:24.477Z,33.12
2023-04-26T12:09:24.442Z,32.93
2023-04-26T12:10:24.409Z,32.80
2023-04-26T12:11:24.414Z,32.91
2023-04-26T12:12:24.428Z,32.86
2023-04-26T12:13:24.340Z,32.99
2023-04-26T12:14:24.302Z,33.04
2023-04-26T12:15:24.271Z,33.04
2023-04-26T12:16:26.683Z,33.10
2023-04-26T12:17:24.361Z,33.13
2023-04-26T12:18:24.190Z,33.16
2023-04-26T12:19:24.151Z,33.18
2023-04-26T12:20:24.118Z,33.17
2023-04-26T12:21:24.091Z,33.16
2023-04-26T12:22:24.057Z,33.17
2023-04-26T12:23:24.026Z,33.16
2023-04-26T12:24:24.013Z,33.17
2023-04-26T12:25:23.968Z,33.15
2023-04-26T12:26:23.943Z,33.08
2023-04-26T12:27:23.897Z,33.09
2023-04-26T12:28:23.906Z,33.07
2023-04-26T12:29:23.831Z,33.08
2023-04-26T12:30:23.825Z,33.07
2023-04-26T12:31:23.833Z,33.06
2023-04-26T12:32:23.748Z,33.03
2023-04-26T12:33:23.757Z,32.99
2023-04-26T12:34:23.690Z,32.98
2023-04-26T12:35:23.656Z,32.93
2023-04-26T12:36:23.646Z,32.94
2023-04-26T12:37:23.616Z,32.90
2023-04-26T12:38:23.576Z,32.90
2023-04-26T12:39:23.550Z,32.87
2023-04-26T12:40:23.519Z,32.87
2023-04-26T12:41:23.498Z,33.09
2023-04-26T12:42:24.350Z,33.16
2023-04-26T12:43:23.442Z,34.00
2023-04-26T12:44:23.412Z,33.74
2023-04-26T12:45:23.398Z,33.62
2023-04-26T12:46:23.381Z,33.47
2023-04-26T12:47:23.353Z,33.40
2023-04-26T12:48:23.316Z,33.40
2023-04-26T12:49:23.274Z,33.45
2023-04-26T12:50:23.241Z,33.44
2023-04-26T12:51:23.213Z,33.43
2023-04-26T12:52:23.173Z,33.41
2023-04-26T12:53:23.162Z,33.37